Pagina principale
METAR-TAF:

METAR-TAF

Aeroporti :

Locarno, Svizzera

Aeroporto di Magadino

latitudine: 46-09-55N, longitudine: 8-52-40E, altezza: 198 m

Osservazione

Il bollettino è stato emesso 39 minuti fa, alle 09:50 UTC
Vento 2 kt da direzioni variabili
Temperature 16°C
Umidità 48%
Pressione 1020 hPa
Visibilità 10 km o più
nessuna nube inferiore a 1500 m e nessun cumulonembo

METAR: LSZL 210950Z VRB02KT CAVOK 16/05 Q1020 RMK BLU

Ora: 12:29 (10:29 UTC)

Previsione

Il bollettino è stato emesso 5 ore e 4 minuti fa, alle 05:25 UTC
Previsione valida dal 21 alle 06 UTC al 21 alle 15 UTC
Vento 3 kt da direzioni variabili
Visibilità 10 km o più
nessuna nube inferiore a 1500 m e nessun cumulonembo

TAF: LSZL 210525Z 2106/2115 VRB03KT CAVOK

Osservazioni e previsioni meteorologiche di più di 4000 aeroporti (messaggi METAR e TAF).

Le stazioni disponibili sono rappresentate dai dischi gialli e rossi sulla carta.

Puntare il mouse per vedere il nome della stazione.

Clicca sopra per visualizzare le osservazioni e previsioni meteorologiche.

Per cambiare la mappa : fare clic sui pulsanti verdi con una croce nera per ingrandire, il pulsante verde con un trattino per diminuire, o sulla freccia verde per le mappe adiacenti.


METAR-TAF: